sensor_id;sensor_type;location;lat;lon;timestamp;P1;durP1;ratioP1;P2;durP2;ratioP2
73825;SDS011;62155;55.080;73.208;2022-07-29T00:02:12;7.25;;;7.25;;
73825;SDS011;62155;55.080;73.208;2022-07-29T00:04:54;8.67;;;8.67;;
73825;SDS011;62155;55.080;73.208;2022-07-29T00:07:35;14.75;;;14.75;;
73825;SDS011;62155;55.080;73.208;2022-07-29T00:10:09;19.00;;;17.00;;
73825;SDS011;62155;55.080;73.208;2022-07-29T00:12:36;19.00;;;16.00;;
73825;SDS011;62155;55.080;73.208;2022-07-29T00:15:11;22.33;;;22.00;;
73825;SDS011;62155;55.080;73.208;2022-07-29T00:17:39;29.50;;;28.25;;
73825;SDS011;62155;55.080;73.208;2022-07-29T00:20:12;30.00;;;29.00;;
73825;SDS011;62155;55.080;73.208;2022-07-29T00:22:46;28.00;;;24.00;;
73825;SDS011;62155;55.080;73.208;2022-07-29T00:25:12;23.00;;;21.00;;
73825;SDS011;62155;55.080;73.208;2022-07-29T00:27:44;24.50;;;22.50;;
73825;SDS011;62155;55.080;73.208;2022-07-29T00:30:16;23.67;;;22.00;;
73825;SDS011;62155;55.080;73.208;2022-07-29T00:32:51;13.50;;;13.50;;
73825;SDS011;62155;55.080;73.208;2022-07-29T00:35:29;10.50;;;9.25;;
73825;SDS011;62155;55.080;73.208;2022-07-29T00:38:22;6.50;;;6.50;;
73825;SDS011;62155;55.080;73.208;2022-07-29T00:40:49;4.00;;;4.00;;
73825;SDS011;62155;55.080;73.208;2022-07-29T00:43:23;5.00;;;5.00;;
73825;SDS011;62155;55.080;73.208;2022-07-29T00:45:59;5.00;;;5.00;;
73825;SDS011;62155;55.080;73.208;2022-07-29T00:48:26;3.50;;;3.00;;
73825;SDS011;62155;55.080;73.208;2022-07-29T00:50:53;4.00;;;4.00;;
73825;SDS011;62155;55.080;73.208;2022-07-29T00:53:27;3.00;;;2.00;;
73825;SDS011;62155;55.080;73.208;2022-07-29T00:55:54;2.00;;;2.00;;
73825;SDS011;62155;55.080;73.208;2022-07-29T00:58:24;2.00;;;2.00;;
73825;SDS011;62155;55.080;73.208;2022-07-29T01:00:51;4.50;;;4.50;;
73825;SDS011;62155;55.080;73.208;2022-07-29T01:03:19;10.00;;;10.00;;
73825;SDS011;62155;55.080;73.208;2022-07-29T01:05:46;7.00;;;6.25;;
73825;SDS011;62155;55.080;73.208;2022-07-29T01:08:13;4.00;;;4.00;;
73825;SDS011;62155;55.080;73.208;2022-07-29T01:10:43;5.00;;;5.00;;
73825;SDS011;62155;55.080;73.208;2022-07-29T01:13:20;4.25;;;4.25;;
73825;SDS011;62155;55.080;73.208;2022-07-29T01:15:50;6.00;;;5.00;;
73825;SDS011;62155;55.080;73.208;2022-07-29T01:18:53;6.00;;;6.00;;
73825;SDS011;62155;55.080;73.208;2022-07-29T01:29:05;8.00;;;8.00;;
73825;SDS011;62155;55.080;73.208;2022-07-29T01:34:54;14.75;;;14.75;;
73825;SDS011;62155;55.080;73.208;2022-07-29T01:37:30;19.50;;;19.25;;
73825;SDS011;62155;55.080;73.208;2022-07-29T01:39:59;11.67;;;9.00;;
73825;SDS011;62155;55.080;73.208;2022-07-29T01:42:45;7.00;;;6.00;;
73825;SDS011;62155;55.080;73.208;2022-07-29T01:48:00;5.50;;;5.50;;
73825;SDS011;62155;55.080;73.208;2022-07-29T01:51:21;13.00;;;12.00;;
73825;SDS011;62155;55.080;73.208;2022-07-29T01:53:53;9.50;;;9.25;;
73825;SDS011;62155;55.080;73.208;2022-07-29T01:56:24;10.00;;;9.00;;
73825;SDS011;62155;55.080;73.208;2022-07-29T01:58:54;15.25;;;13.50;;
73825;SDS011;62155;55.080;73.208;2022-07-29T02:01:24;18.00;;;17.00;;
73825;SDS011;62155;55.080;73.208;2022-07-29T02:03:54;14.50;;;13.50;;
73825;SDS011;62155;55.080;73.208;2022-07-29T02:06:22;15.33;;;14.00;;
73825;SDS011;62155;55.080;73.208;2022-07-29T02:08:51;17.00;;;16.00;;
73825;SDS011;62155;55.080;73.208;2022-07-29T02:11:27;13.00;;;12.00;;
73825;SDS011;62155;55.080;73.208;2022-07-29T02:14:20;15.00;;;12.50;;
73825;SDS011;62155;55.080;73.208;2022-07-29T02:17:06;117.75;;;108.00;;
73825;SDS011;62155;55.080;73.208;2022-07-29T02:19:34;97.75;;;89.50;;
73825;SDS011;62155;55.080;73.208;2022-07-29T02:22:07;65.50;;;51.50;;
73825;SDS011;62155;55.080;73.208;2022-07-29T02:24:36;50.00;;;41.67;;
73825;SDS011;62155;55.080;73.208;2022-07-29T02:27:06;30.75;;;29.25;;
73825;SDS011;62155;55.080;73.208;2022-07-29T02:29:35;23.75;;;23.50;;
73825;SDS011;62155;55.080;73.208;2022-07-29T02:32:10;19.75;;;19.50;;
73825;SDS011;62155;55.080;73.208;2022-07-29T02:34:45;18.75;;;18.00;;
73825;SDS011;62155;55.080;73.208;2022-07-29T02:37:14;16.75;;;15.75;;
73825;SDS011;62155;55.080;73.208;2022-07-29T02:39:48;18.00;;;15.00;;
73825;SDS011;62155;55.080;73.208;2022-07-29T02:42:18;19.50;;;16.75;;
73825;SDS011;62155;55.080;73.208;2022-07-29T02:44:54;18.00;;;18.00;;
73825;SDS011;62155;55.080;73.208;2022-07-29T02:47:27;15.50;;;15.50;;
73825;SDS011;62155;55.080;73.208;2022-07-29T02:50:11;13.67;;;13.67;;
73825;SDS011;62155;55.080;73.208;2022-07-29T02:58:37;15.00;;;14.50;;
73825;SDS011;62155;55.080;73.208;2022-07-29T03:00:56;10.33;;;9.33;;
73825;SDS011;62155;55.080;73.208;2022-07-29T03:03:29;8.00;;;7.00;;
73825;SDS011;62155;55.080;73.208;2022-07-29T03:06:00;6.00;;;4.00;;
73825;SDS011;62155;55.080;73.208;2022-07-29T03:08:40;7.00;;;6.75;;
73825;SDS011;62155;55.080;73.208;2022-07-29T03:11:21;7.00;;;7.00;;
73825;SDS011;62155;55.080;73.208;2022-07-29T03:13:50;5.00;;;5.00;;
73825;SDS011;62155;55.080;73.208;2022-07-29T03:16:23;6.67;;;6.67;;
73825;SDS011;62155;55.080;73.208;2022-07-29T03:18:52;7.00;;;7.00;;
73825;SDS011;62155;55.080;73.208;2022-07-29T03:21:36;6.00;;;6.00;;
73825;SDS011;62155;55.080;73.208;2022-07-29T03:24:06;5.00;;;5.00;;
73825;SDS011;62155;55.080;73.208;2022-07-29T03:26:32;5.00;;;5.00;;
73825;SDS011;62155;55.080;73.208;2022-07-29T03:29:04;6.00;;;6.00;;
73825;SDS011;62155;55.080;73.208;2022-07-29T03:31:31;4.00;;;4.00;;
73825;SDS011;62155;55.080;73.208;2022-07-29T03:33:58;5.00;;;4.25;;
73825;SDS011;62155;55.080;73.208;2022-07-29T03:36:25;20.33;;;15.33;;
73825;SDS011;62155;55.080;73.208;2022-07-29T03:38:57;22.00;;;18.25;;
73825;SDS011;62155;55.080;73.208;2022-07-29T03:41:28;20.00;;;19.00;;
73825;SDS011;62155;55.080;73.208;2022-07-29T03:44:23;19.67;;;19.33;;
73825;SDS011;62155;55.080;73.208;2022-07-29T03:46:58;16.75;;;15.00;;
73825;SDS011;62155;55.080;73.208;2022-07-29T03:49:31;19.00;;;17.00;;
73825;SDS011;62155;55.080;73.208;2022-07-29T03:51:59;19.75;;;18.75;;
73825;SDS011;62155;55.080;73.208;2022-07-29T03:54:28;20.67;;;20.67;;
73825;SDS011;62155;55.080;73.208;2022-07-29T03:57:01;21.00;;;19.75;;
73825;SDS011;62155;55.080;73.208;2022-07-29T03:59:29;18.75;;;18.75;;
73825;SDS011;62155;55.080;73.208;2022-07-29T04:01:58;31.50;;;27.00;;
73825;SDS011;62155;55.080;73.208;2022-07-29T04:04:41;37.50;;;31.00;;
73825;SDS011;62155;55.080;73.208;2022-07-29T04:07:17;48.75;;;40.25;;
73825;SDS011;62155;55.080;73.208;2022-07-29T04:09:44;42.00;;;35.00;;
73825;SDS011;62155;55.080;73.208;2022-07-29T04:12:12;55.50;;;45.00;;
73825;SDS011;62155;55.080;73.208;2022-07-29T04:14:38;49.00;;;40.75;;
73825;SDS011;62155;55.080;73.208;2022-07-29T04:17:05;50.00;;;40.75;;
73825;SDS011;62155;55.080;73.208;2022-07-29T04:19:32;45.00;;;37.50;;
73825;SDS011;62155;55.080;73.208;2022-07-29T04:22:19;30.25;;;29.00;;
73825;SDS011;62155;55.080;73.208;2022-07-29T04:24:46;22.00;;;21.33;;
73825;SDS011;62155;55.080;73.208;2022-07-29T04:27:13;24.00;;;22.75;;
73825;SDS011;62155;55.080;73.208;2022-07-29T04:29:44;43.33;;;36.67;;
73825;SDS011;62155;55.080;73.208;2022-07-29T04:32:21;42.00;;;34.75;;
73825;SDS011;62155;55.080;73.208;2022-07-29T04:35:01;42.33;;;35.33;;
73825;SDS011;62155;55.080;73.208;2022-07-29T04:37:28;41.00;;;34.00;;
73825;SDS011;62155;55.080;73.208;2022-07-29T04:39:58;50.67;;;40.00;;
73825;SDS011;62155;55.080;73.208;2022-07-29T04:42:36;49.00;;;40.25;;
73825;SDS011;62155;55.080;73.208;2022-07-29T04:45:07;55.00;;;43.50;;
73825;SDS011;62155;55.080;73.208;2022-07-29T04:47:41;49.00;;;39.00;;
73825;SDS011;62155;55.080;73.208;2022-07-29T04:50:08;46.00;;;38.00;;
73825;SDS011;62155;55.080;73.208;2022-07-29T04:52:37;48.50;;;40.75;;
73825;SDS011;62155;55.080;73.208;2022-07-29T04:55:06;51.00;;;42.33;;
73825;SDS011;62155;55.080;73.208;2022-07-29T04:57:33;51.50;;;41.50;;
73825;SDS011;62155;55.080;73.208;2022-07-29T05:00:00;52.00;;;41.33;;
73825;SDS011;62155;55.080;73.208;2022-07-29T05:02:27;52.50;;;42.00;;
73825;SDS011;62155;55.080;73.208;2022-07-29T05:04:54;46.00;;;38.00;;
73825;SDS011;62155;55.080;73.208;2022-07-29T05:07:21;38.50;;;34.00;;
73825;SDS011;62155;55.080;73.208;2022-07-29T05:09:50;44.67;;;36.67;;
73825;SDS011;62155;55.080;73.208;2022-07-29T05:12:18;41.50;;;35.25;;
73825;SDS011;62155;55.080;73.208;2022-07-29T05:14:44;42.50;;;35.00;;
73825;SDS011;62155;55.080;73.208;2022-07-29T05:17:11;36.75;;;32.00;;
73825;SDS011;62155;55.080;73.208;2022-07-29T05:19:40;31.00;;;29.00;;
73825;SDS011;62155;55.080;73.208;2022-07-29T05:22:06;36.00;;;31.00;;
73825;SDS011;62155;55.080;73.208;2022-07-29T05:24:39;36.67;;;32.00;;
73825;SDS011;62155;55.080;73.208;2022-07-29T05:27:26;31.00;;;28.75;;
73825;SDS011;62155;55.080;73.208;2022-07-29T05:29:58;25.00;;;25.00;;
73825;SDS011;62155;55.080;73.208;2022-07-29T05:32:36;31.00;;;29.00;;
73825;SDS011;62155;55.080;73.208;2022-07-29T05:35:03;27.00;;;24.00;;
73825;SDS011;62155;55.080;73.208;2022-07-29T05:37:30;24.75;;;22.75;;
73825;SDS011;62155;55.080;73.208;2022-07-29T05:39:58;22.00;;;20.33;;
73825;SDS011;62155;55.080;73.208;2022-07-29T05:42:26;27.00;;;26.00;;
73825;SDS011;62155;55.080;73.208;2022-07-29T05:45:08;31.00;;;29.00;;
73825;SDS011;62155;55.080;73.208;2022-07-29T05:47:55;23.00;;;22.00;;
73825;SDS011;62155;55.080;73.208;2022-07-29T05:50:27;25.67;;;24.67;;
73825;SDS011;62155;55.080;73.208;2022-07-29T05:52:54;30.00;;;27.75;;
73825;SDS011;62155;55.080;73.208;2022-07-29T05:55:23;31.67;;;27.00;;
73825;SDS011;62155;55.080;73.208;2022-07-29T05:57:51;33.50;;;31.50;;
73825;SDS011;62155;55.080;73.208;2022-07-29T06:00:18;39.75;;;33.00;;
73825;SDS011;62155;55.080;73.208;2022-07-29T06:02:48;39.75;;;34.75;;
73825;SDS011;62155;55.080;73.208;2022-07-29T06:05:15;28.00;;;28.00;;
73825;SDS011;62155;55.080;73.208;2022-07-29T06:07:52;27.00;;;26.50;;
73825;SDS011;62155;55.080;73.208;2022-07-29T06:10:22;33.00;;;29.00;;
73825;SDS011;62155;55.080;73.208;2022-07-29T06:12:49;36.25;;;31.00;;
73825;SDS011;62155;55.080;73.208;2022-07-29T06:15:28;41.50;;;34.25;;
73825;SDS011;62155;55.080;73.208;2022-07-29T06:17:57;38.00;;;33.00;;
73825;SDS011;62155;55.080;73.208;2022-07-29T06:20:35;38.25;;;33.00;;
73825;SDS011;62155;55.080;73.208;2022-07-29T06:23:04;30.00;;;28.75;;
73825;SDS011;62155;55.080;73.208;2022-07-29T06:25:31;26.75;;;25.75;;
73825;SDS011;62155;55.080;73.208;2022-07-29T06:28:07;28.75;;;26.00;;
73825;SDS011;62155;55.080;73.208;2022-07-29T06:30:36;25.00;;;23.67;;
73825;SDS011;62155;55.080;73.208;2022-07-29T06:33:09;30.00;;;27.00;;
73825;SDS011;62155;55.080;73.208;2022-07-29T06:35:37;26.25;;;24.00;;
73825;SDS011;62155;55.080;73.208;2022-07-29T06:38:07;24.50;;;23.50;;
73825;SDS011;62155;55.080;73.208;2022-07-29T06:40:35;27.00;;;23.00;;
73825;SDS011;62155;55.080;73.208;2022-07-29T06:43:21;26.00;;;22.50;;
73825;SDS011;62155;55.080;73.208;2022-07-29T06:45:50;25.00;;;22.50;;
73825;SDS011;62155;55.080;73.208;2022-07-29T06:48:17;23.00;;;22.00;;
73825;SDS011;62155;55.080;73.208;2022-07-29T06:50:54;23.00;;;23.00;;
73825;SDS011;62155;55.080;73.208;2022-07-29T06:53:21;22.00;;;22.00;;
73825;SDS011;62155;55.080;73.208;2022-07-29T06:55:51;22.33;;;22.00;;
73825;SDS011;62155;55.080;73.208;2022-07-29T06:58:18;20.50;;;19.50;;
73825;SDS011;62155;55.080;73.208;2022-07-29T07:01:04;20.00;;;19.00;;
73825;SDS011;62155;55.080;73.208;2022-07-29T07:03:32;21.00;;;19.00;;
73825;SDS011;62155;55.080;73.208;2022-07-29T07:06:06;23.67;;;21.67;;
73825;SDS011;62155;55.080;73.208;2022-07-29T07:08:34;32.75;;;29.75;;
73825;SDS011;62155;55.080;73.208;2022-07-29T07:11:04;54.50;;;44.75;;
73825;SDS011;62155;55.080;73.208;2022-07-29T07:13:39;86.25;;;83.00;;
73825;SDS011;62155;55.080;73.208;2022-07-29T07:16:11;69.33;;;58.67;;
73825;SDS011;62155;55.080;73.208;2022-07-29T07:18:38;54.00;;;44.00;;
73825;SDS011;62155;55.080;73.208;2022-07-29T07:21:05;43.00;;;36.00;;
73825;SDS011;62155;55.080;73.208;2022-07-29T07:23:34;28.25;;;26.25;;
73825;SDS011;62155;55.080;73.208;2022-07-29T07:26:01;26.00;;;25.67;;
73825;SDS011;62155;55.080;73.208;2022-07-29T07:28:31;21.50;;;20.25;;
73825;SDS011;62155;55.080;73.208;2022-07-29T07:31:08;58.25;;;47.00;;
73825;SDS011;62155;55.080;73.208;2022-07-29T07:33:39;48.50;;;41.00;;
73825;SDS011;62155;55.080;73.208;2022-07-29T07:36:06;37.33;;;32.00;;
73825;SDS011;62155;55.080;73.208;2022-07-29T07:38:33;30.25;;;29.25;;
73825;SDS011;62155;55.080;73.208;2022-07-29T07:41:01;25.00;;;25.00;;
73825;SDS011;62155;55.080;73.208;2022-07-29T07:43:32;28.25;;;28.00;;
73825;SDS011;62155;55.080;73.208;2022-07-29T07:45:59;24.00;;;23.50;;
73825;SDS011;62155;55.080;73.208;2022-07-29T07:48:27;37.75;;;33.50;;
73825;SDS011;62155;55.080;73.208;2022-07-29T07:50:54;29.33;;;28.33;;
73825;SDS011;62155;55.080;73.208;2022-07-29T07:53:28;22.25;;;21.25;;
73825;SDS011;62155;55.080;73.208;2022-07-29T07:55:57;21.00;;;20.00;;
73825;SDS011;62155;55.080;73.208;2022-07-29T07:58:32;42.00;;;36.75;;
73825;SDS011;62155;55.080;73.208;2022-07-29T08:01:31;43.67;;;37.33;;
73825;SDS011;62155;55.080;73.208;2022-07-29T08:04:03;31.75;;;29.75;;
73825;SDS011;62155;55.080;73.208;2022-07-29T08:06:34;28.00;;;27.50;;
73825;SDS011;62155;55.080;73.208;2022-07-29T08:09:19;25.00;;;24.00;;
73825;SDS011;62155;55.080;73.208;2022-07-29T08:11:52;27.50;;;24.75;;
73825;SDS011;62155;55.080;73.208;2022-07-29T08:14:19;28.00;;;26.00;;
73825;SDS011;62155;55.080;73.208;2022-07-29T08:16:46;27.50;;;26.00;;
73825;SDS011;62155;55.080;73.208;2022-07-29T08:19:18;25.50;;;24.00;;
73825;SDS011;62155;55.080;73.208;2022-07-29T08:21:47;25.00;;;22.75;;
73825;SDS011;62155;55.080;73.208;2022-07-29T08:24:19;23.00;;;21.00;;
73825;SDS011;62155;55.080;73.208;2022-07-29T08:27:04;20.00;;;19.25;;
73825;SDS011;62155;55.080;73.208;2022-07-29T08:29:41;18.00;;;17.00;;
73825;SDS011;62155;55.080;73.208;2022-07-29T08:32:14;22.00;;;19.00;;
73825;SDS011;62155;55.080;73.208;2022-07-29T08:34:41;22.00;;;21.67;;
73825;SDS011;62155;55.080;73.208;2022-07-29T08:37:08;20.00;;;19.00;;
73825;SDS011;62155;55.080;73.208;2022-07-29T08:39:35;19.00;;;18.00;;
73825;SDS011;62155;55.080;73.208;2022-07-29T08:42:13;19.75;;;19.00;;
73825;SDS011;62155;55.080;73.208;2022-07-29T08:44:51;28.00;;;27.00;;
73825;SDS011;62155;55.080;73.208;2022-07-29T08:47:18;27.50;;;27.50;;
73825;SDS011;62155;55.080;73.208;2022-07-29T08:49:45;35.67;;;30.33;;
73825;SDS011;62155;55.080;73.208;2022-07-29T08:52:24;48.75;;;39.50;;
73825;SDS011;62155;55.080;73.208;2022-07-29T08:54:52;47.50;;;39.00;;
73825;SDS011;62155;55.080;73.208;2022-07-29T08:57:20;33.25;;;31.00;;
73825;SDS011;62155;55.080;73.208;2022-07-29T08:59:47;31.50;;;29.75;;
73825;SDS011;62155;55.080;73.208;2022-07-29T09:02:21;25.25;;;25.00;;
73825;SDS011;62155;55.080;73.208;2022-07-29T09:04:51;22.00;;;22.00;;
73825;SDS011;62155;55.080;73.208;2022-07-29T09:07:18;25.75;;;24.00;;
73825;SDS011;62155;55.080;73.208;2022-07-29T09:10:02;28.00;;;24.50;;
73825;SDS011;62155;55.080;73.208;2022-07-29T09:12:30;21.25;;;20.75;;
73825;SDS011;62155;55.080;73.208;2022-07-29T09:14:59;27.67;;;26.00;;
73825;SDS011;62155;55.080;73.208;2022-07-29T09:17:45;22.50;;;22.00;;
73825;SDS011;62155;55.080;73.208;2022-07-29T09:20:14;22.50;;;22.00;;
73825;SDS011;62155;55.080;73.208;2022-07-29T09:22:42;25.25;;;25.25;;
73825;SDS011;62155;55.080;73.208;2022-07-29T09:25:36;26.75;;;26.50;;
73825;SDS011;62155;55.080;73.208;2022-07-29T09:28:15;23.00;;;22.00;;
73825;SDS011;62155;55.080;73.208;2022-07-29T09:30:56;35.33;;;32.00;;
73825;SDS011;62155;55.080;73.208;2022-07-29T09:33:43;42.75;;;37.00;;
73825;SDS011;62155;55.080;73.208;2022-07-29T09:36:16;41.33;;;35.33;;
73825;SDS011;62155;55.080;73.208;2022-07-29T09:38:56;33.50;;;31.50;;
73825;SDS011;62155;55.080;73.208;2022-07-29T09:41:27;31.33;;;29.00;;
73825;SDS011;62155;55.080;73.208;2022-07-29T09:43:58;31.50;;;27.00;;
73825;SDS011;62155;55.080;73.208;2022-07-29T09:46:30;27.00;;;25.00;;
73825;SDS011;62155;55.080;73.208;2022-07-29T09:49:11;26.00;;;24.00;;
73825;SDS011;62155;55.080;73.208;2022-07-29T09:51:40;25.00;;;22.75;;
73825;SDS011;62155;55.080;73.208;2022-07-29T09:54:23;25.75;;;24.25;;
73825;SDS011;62155;55.080;73.208;2022-07-29T09:57:05;28.00;;;28.00;;
73825;SDS011;62155;55.080;73.208;2022-07-29T09:59:33;26.00;;;25.67;;
73825;SDS011;62155;55.080;73.208;2022-07-29T10:02:12;24.00;;;22.00;;
73825;SDS011;62155;55.080;73.208;2022-07-29T10:04:41;23.00;;;21.00;;
73825;SDS011;62155;55.080;73.208;2022-07-29T10:07:15;22.00;;;21.00;;
73825;SDS011;62155;55.080;73.208;2022-07-29T10:09:49;23.33;;;21.00;;
73825;SDS011;62155;55.080;73.208;2022-07-29T10:12:25;26.50;;;25.00;;
73825;SDS011;62155;55.080;73.208;2022-07-29T10:15:01;30.50;;;28.75;;
73825;SDS011;62155;55.080;73.208;2022-07-29T10:17:29;30.25;;;29.00;;
73825;SDS011;62155;55.080;73.208;2022-07-29T10:20:07;29.00;;;26.00;;
73825;SDS011;62155;55.080;73.208;2022-07-29T10:22:39;31.00;;;29.25;;
73825;SDS011;62155;55.080;73.208;2022-07-29T10:25:17;32.67;;;30.33;;
73825;SDS011;62155;55.080;73.208;2022-07-29T10:27:51;41.75;;;34.25;;
73825;SDS011;62155;55.080;73.208;2022-07-29T10:30:20;43.25;;;34.50;;
73825;SDS011;62155;55.080;73.208;2022-07-29T10:35:42;47.33;;;38.33;;
73825;SDS011;62155;55.080;73.208;2022-07-29T10:41:07;37.00;;;31.33;;
73825;SDS011;62155;55.080;73.208;2022-07-29T10:44:16;45.25;;;37.00;;
73825;SDS011;62155;55.080;73.208;2022-07-29T10:46:46;36.25;;;31.00;;
73825;SDS011;62155;55.080;73.208;2022-07-29T10:49:19;32.00;;;30.00;;
73825;SDS011;62155;55.080;73.208;2022-07-29T10:54:36;30.00;;;26.20;;
73825;SDS011;62155;55.080;73.208;2022-07-29T10:57:46;37.50;;;30.75;;
73825;SDS011;62155;55.080;73.208;2022-07-29T11:05:03;32.50;;;29.75;;
73825;SDS011;62155;55.080;73.208;2022-07-29T11:07:35;34.50;;;31.00;;
73825;SDS011;62155;55.080;73.208;2022-07-29T11:15:10;33.00;;;29.00;;
73825;SDS011;62155;55.080;73.208;2022-07-29T11:20:31;32.00;;;29.00;;
73825;SDS011;62155;55.080;73.208;2022-07-29T11:29:01;45.00;;;36.75;;
73825;SDS011;62155;55.080;73.208;2022-07-29T11:31:39;41.33;;;34.33;;
73825;SDS011;62155;55.080;73.208;2022-07-29T11:37:19;70.50;;;62.25;;
73825;SDS011;62155;55.080;73.208;2022-07-29T11:44:58;96.00;;;94.67;;
73825;SDS011;62155;55.080;73.208;2022-07-29T11:47:31;105.25;;;103.00;;
73825;SDS011;62155;55.080;73.208;2022-07-29T11:49:59;88.67;;;85.00;;
73825;SDS011;62155;55.080;73.208;2022-07-29T11:52:40;85.25;;;81.25;;
73825;SDS011;62155;55.080;73.208;2022-07-29T11:55:15;79.33;;;72.33;;
73825;SDS011;62155;55.080;73.208;2022-07-29T11:58:03;53.25;;;42.75;;
73825;SDS011;62155;55.080;73.208;2022-07-29T12:00:32;42.67;;;34.33;;
73825;SDS011;62155;55.080;73.208;2022-07-29T12:03:08;38.00;;;32.00;;
73825;SDS011;62155;55.080;73.208;2022-07-29T12:05:37;36.50;;;31.50;;
73825;SDS011;62155;55.080;73.208;2022-07-29T12:10:38;37.33;;;33.00;;
73825;SDS011;62155;55.080;73.208;2022-07-29T12:13:06;39.50;;;33.00;;
73825;SDS011;62155;55.080;73.208;2022-07-29T12:15:34;42.33;;;34.00;;
73825;SDS011;62155;55.080;73.208;2022-07-29T12:18:10;32.25;;;30.25;;
73825;SDS011;62155;55.080;73.208;2022-07-29T12:20:37;32.75;;;30.75;;
73825;SDS011;62155;55.080;73.208;2022-07-29T12:23:06;34.00;;;29.50;;
73825;SDS011;62155;55.080;73.208;2022-07-29T12:25:35;28.00;;;28.00;;
73825;SDS011;62155;55.080;73.208;2022-07-29T12:28:12;23.00;;;20.50;;
73825;SDS011;62155;55.080;73.208;2022-07-29T12:30:43;28.75;;;26.50;;
73825;SDS011;62155;55.080;73.208;2022-07-29T12:33:24;41.00;;;35.50;;
73825;SDS011;62155;55.080;73.208;2022-07-29T12:35:57;31.67;;;28.67;;
73825;SDS011;62155;55.080;73.208;2022-07-29T12:38:26;32.75;;;29.00;;
73825;SDS011;62155;55.080;73.208;2022-07-29T12:40:58;31.00;;;27.00;;
73825;SDS011;62155;55.080;73.208;2022-07-29T12:43:25;28.00;;;23.50;;
73825;SDS011;62155;55.080;73.208;2022-07-29T12:45:54;40.67;;;32.33;;
73825;SDS011;62155;55.080;73.208;2022-07-29T12:48:33;32.50;;;29.25;;
73825;SDS011;62155;55.080;73.208;2022-07-29T12:51:06;31.00;;;28.00;;
73825;SDS011;62155;55.080;73.208;2022-07-29T12:53:35;33.00;;;29.00;;
73825;SDS011;62155;55.080;73.208;2022-07-29T12:56:05;29.33;;;27.00;;
73825;SDS011;62155;55.080;73.208;2022-07-29T13:01:08;41.50;;;34.50;;
73825;SDS011;62155;55.080;73.208;2022-07-29T13:03:52;54.00;;;42.50;;
73825;SDS011;62155;55.080;73.208;2022-07-29T13:06:28;35.00;;;30.00;;
73825;SDS011;62155;55.080;73.208;2022-07-29T13:11:32;30.50;;;28.00;;
73825;SDS011;62155;55.080;73.208;2022-07-29T13:13:59;47.25;;;39.00;;
73825;SDS011;62155;55.080;73.208;2022-07-29T13:19:37;48.25;;;39.50;;
73825;SDS011;62155;55.080;73.208;2022-07-29T13:22:21;28.75;;;26.50;;
73825;SDS011;62155;55.080;73.208;2022-07-29T13:27:16;30.25;;;28.50;;
73825;SDS011;62155;55.080;73.208;2022-07-29T13:29:43;22.25;;;22.25;;
73825;SDS011;62155;55.080;73.208;2022-07-29T13:32:33;19.00;;;18.75;;
73825;SDS011;62155;55.080;73.208;2022-07-29T13:35:01;18.25;;;18.00;;
73825;SDS011;62155;55.080;73.208;2022-07-29T13:37:35;21.00;;;20.00;;
73825;SDS011;62155;55.080;73.208;2022-07-29T13:40:05;22.50;;;20.00;;
73825;SDS011;62155;55.080;73.208;2022-07-29T13:42:35;25.00;;;20.00;;
73825;SDS011;62155;55.080;73.208;2022-07-29T13:45:02;37.50;;;31.50;;
73825;SDS011;62155;55.080;73.208;2022-07-29T13:47:30;32.50;;;28.00;;
73825;SDS011;62155;55.080;73.208;2022-07-29T13:49:57;29.67;;;26.67;;
73825;SDS011;62155;55.080;73.208;2022-07-29T13:52:25;28.25;;;25.00;;
73825;SDS011;62155;55.080;73.208;2022-07-29T13:55:02;33.00;;;28.33;;
73825;SDS011;62155;55.080;73.208;2022-07-29T13:57:31;31.00;;;27.75;;
73825;SDS011;62155;55.080;73.208;2022-07-29T13:59:59;33.50;;;29.50;;
73825;SDS011;62155;55.080;73.208;2022-07-29T14:02:26;32.25;;;28.25;;
73825;SDS011;62155;55.080;73.208;2022-07-29T14:04:53;48.00;;;39.33;;
73825;SDS011;62155;55.080;73.208;2022-07-29T14:07:20;31.25;;;28.25;;
73825;SDS011;62155;55.080;73.208;2022-07-29T14:09:47;28.00;;;24.00;;
73825;SDS011;62155;55.080;73.208;2022-07-29T14:12:15;30.00;;;25.00;;
73825;SDS011;62155;55.080;73.208;2022-07-29T14:14:42;34.00;;;30.00;;
73825;SDS011;62155;55.080;73.208;2022-07-29T14:17:09;27.25;;;26.00;;
73825;SDS011;62155;55.080;73.208;2022-07-29T14:19:35;22.00;;;21.00;;
73825;SDS011;62155;55.080;73.208;2022-07-29T14:22:15;26.00;;;23.00;;
73825;SDS011;62155;55.080;73.208;2022-07-29T14:24:41;27.00;;;20.67;;
73825;SDS011;62155;55.080;73.208;2022-07-29T14:27:08;25.75;;;23.75;;
73825;SDS011;62155;55.080;73.208;2022-07-29T14:29:42;26.67;;;23.00;;
73825;SDS011;62155;55.080;73.208;2022-07-29T14:32:09;40.00;;;32.00;;
73825;SDS011;62155;55.080;73.208;2022-07-29T14:34:36;35.00;;;30.00;;
73825;SDS011;62155;55.080;73.208;2022-07-29T14:37:09;31.00;;;26.00;;
73825;SDS011;62155;55.080;73.208;2022-07-29T14:39:36;28.33;;;25.00;;
73825;SDS011;62155;55.080;73.208;2022-07-29T14:42:02;25.25;;;20.50;;
73825;SDS011;62155;55.080;73.208;2022-07-29T14:44:36;20.67;;;18.00;;
73825;SDS011;62155;55.080;73.208;2022-07-29T14:47:03;23.00;;;19.25;;
73825;SDS011;62155;55.080;73.208;2022-07-29T14:49:31;23.75;;;19.50;;
73825;SDS011;62155;55.080;73.208;2022-07-29T14:51:58;21.00;;;19.00;;
73825;SDS011;62155;55.080;73.208;2022-07-29T14:54:34;21.00;;;19.00;;
73825;SDS011;62155;55.080;73.208;2022-07-29T14:57:01;21.00;;;20.50;;
73825;SDS011;62155;55.080;73.208;2022-07-29T14:59:28;21.33;;;19.00;;
73825;SDS011;62155;55.080;73.208;2022-07-29T15:01:56;23.25;;;18.50;;
73825;SDS011;62155;55.080;73.208;2022-07-29T15:04:24;24.00;;;21.75;;
73825;SDS011;62155;55.080;73.208;2022-07-29T15:07:01;23.25;;;22.50;;
73825;SDS011;62155;55.080;73.208;2022-07-29T15:09:28;26.00;;;23.00;;
73825;SDS011;62155;55.080;73.208;2022-07-29T15:14:48;45.67;;;37.33;;
73825;SDS011;62155;55.080;73.208;2022-07-29T15:17:21;48.25;;;39.50;;
73825;SDS011;62155;55.080;73.208;2022-07-29T15:19:48;51.00;;;40.67;;
73825;SDS011;62155;55.080;73.208;2022-07-29T15:22:26;51.00;;;41.75;;
73825;SDS011;62155;55.080;73.208;2022-07-29T15:25:03;70.00;;;55.00;;
73825;SDS011;62155;55.080;73.208;2022-07-29T15:27:36;57.00;;;44.75;;
73825;SDS011;62155;55.080;73.208;2022-07-29T15:30:04;49.67;;;41.00;;
73825;SDS011;62155;55.080;73.208;2022-07-29T15:32:30;35.25;;;31.00;;
73825;SDS011;62155;55.080;73.208;2022-07-29T15:34:59;55.33;;;44.67;;
73825;SDS011;62155;55.080;73.208;2022-07-29T15:37:36;40.00;;;33.50;;
73825;SDS011;62155;55.080;73.208;2022-07-29T15:40:12;30.00;;;28.00;;
73825;SDS011;62155;55.080;73.208;2022-07-29T15:42:39;37.75;;;32.75;;
73825;SDS011;62155;55.080;73.208;2022-07-29T15:45:06;21.33;;;20.67;;
73825;SDS011;62155;55.080;73.208;2022-07-29T15:47:34;22.25;;;21.25;;
73825;SDS011;62155;55.080;73.208;2022-07-29T15:50:04;27.67;;;23.33;;
73825;SDS011;62155;55.080;73.208;2022-07-29T15:52:37;20.00;;;18.00;;